EmailTwitter


Observations de surface / Québec / LFKB

Régions: Québec | Canada | États-Unis | Europe | France | UK | Ailleurs
Station
Affichage
Infos & localisation pour LFKB | Aide pour décoder les METARs

Observations prises le 2017-09-21 à 10H30 UTC à BASTIA/PORETTA, FR (LFKB)

Etat du ciel: quelques nuages.

Température: 22.0 Celsius

Point de rosée: 12.0 Celsius

Humidité relative: 53%

Vents: Est-sud-est à 13 km/h ou 7 noeuds.

Pression au niveau moyen de la mer: 101.90 kilopascals.

Visibilité horizontale: 6.21 milles terrestres ou 9.94 kilomètres.

Observation METAR:

LFKB 211030Z 11007KT 080V140 9999 FEW030 22/12 Q1019 NOSIG=